createdAt,value
2018-06-04T00:00:22.951Z,28.10
2018-06-04T00:02:51.045Z,29.70
2018-06-04T00:05:19.114Z,29.23
2018-06-04T00:07:47.205Z,30.27
2018-06-04T00:10:15.279Z,32.43
2018-06-04T00:12:43.356Z,33.67
2018-06-04T00:15:11.487Z,33.67
2018-06-04T00:17:39.550Z,34.80
2018-06-04T00:20:07.693Z,31.53
2018-06-04T00:22:35.779Z,31.93
2018-06-04T00:25:03.943Z,38.75
2018-06-04T00:27:32.031Z,34.33
2018-06-04T00:30:00.139Z,39.88
2018-06-04T00:32:28.239Z,34.60
2018-06-04T00:34:56.314Z,35.63
2018-06-04T00:37:24.196Z,37.77
2018-06-04T00:39:52.268Z,35.50
2018-06-04T00:42:20.342Z,35.57
2018-06-04T00:44:48.418Z,34.43
2018-06-04T00:47:16.526Z,35.30
2018-06-04T00:49:44.627Z,37.00
2018-06-04T00:52:12.735Z,36.83
2018-06-04T00:54:40.836Z,35.70
2018-06-04T00:57:08.927Z,34.80
2018-06-04T00:59:37.026Z,38.50
2018-06-04T01:02:05.467Z,36.93
2018-06-04T01:04:33.567Z,37.13
2018-06-04T01:07:01.812Z,37.97
2018-06-04T01:09:29.983Z,37.33
2018-06-04T01:11:58.054Z,35.67
2018-06-04T01:14:26.175Z,37.90
2018-06-04T01:16:54.262Z,36.07
2018-06-04T01:19:22.454Z,38.50
2018-06-04T01:21:50.547Z,37.77
2018-06-04T01:24:18.695Z,37.30
2018-06-04T01:26:46.788Z,35.47
2018-06-04T01:29:14.875Z,34.73
2018-06-04T01:31:42.953Z,36.43
2018-06-04T01:34:11.048Z,37.63
2018-06-04T01:36:39.134Z,35.80
2018-06-04T01:39:07.835Z,35.03
2018-06-04T01:41:36.059Z,36.23
2018-06-04T01:44:04.320Z,37.40
2018-06-04T01:46:32.413Z,35.50
2018-06-04T01:49:00.482Z,34.83
2018-06-04T01:51:28.663Z,35.53
2018-06-04T01:53:56.758Z,34.13
2018-06-04T01:56:24.833Z,35.17
2018-06-04T01:58:52.914Z,35.60
2018-06-04T02:01:21.009Z,33.50
2018-06-04T02:03:49.155Z,33.43
2018-06-04T02:06:17.243Z,38.65
2018-06-04T02:08:45.337Z,36.63
2018-06-04T02:11:13.428Z,39.92
2018-06-04T02:13:41.541Z,38.13
2018-06-04T02:16:09.661Z,37.03
2018-06-04T02:18:37.749Z,33.67
2018-06-04T02:21:05.883Z,34.90
2018-06-04T02:23:33.964Z,34.67
2018-06-04T02:26:02.056Z,36.67
2018-06-04T02:28:30.146Z,35.97
2018-06-04T02:30:58.264Z,37.33
2018-06-04T02:33:26.350Z,37.77
2018-06-04T02:35:54.439Z,40.53
2018-06-04T02:38:23.363Z,39.33
2018-06-04T02:40:51.456Z,40.90
2018-06-04T02:43:19.548Z,42.67
2018-06-04T02:45:47.549Z,45.67
2018-06-04T02:48:15.616Z,43.97
2018-06-04T02:50:43.705Z,47.60
2018-06-04T02:53:11.768Z,47.40
2018-06-04T02:55:39.855Z,45.87
2018-06-04T02:58:07.919Z,49.23
2018-06-04T03:00:36.008Z,55.25
2018-06-04T03:03:04.079Z,53.00
2018-06-04T03:05:32.222Z,48.00
2018-06-04T03:08:00.396Z,50.10
2018-06-04T03:10:28.492Z,45.13
2018-06-04T03:12:56.600Z,49.17
2018-06-04T03:15:24.478Z,49.83
2018-06-04T03:17:52.683Z,49.90
2018-06-04T03:20:20.763Z,50.33
2018-06-04T03:22:48.832Z,48.63
2018-06-04T03:25:17.001Z,51.33
2018-06-04T03:27:45.075Z,48.17
2018-06-04T03:30:13.221Z,48.13
2018-06-04T03:32:41.307Z,50.23
2018-06-04T03:35:09.390Z,48.33
2018-06-04T03:37:37.455Z,49.60
2018-06-04T03:40:05.715Z,48.63
2018-06-04T03:42:33.834Z,46.97
2018-06-04T03:45:01.942Z,49.20
2018-06-04T03:47:29.890Z,49.63
2018-06-04T03:49:58.050Z,53.33
2018-06-04T03:52:26.122Z,48.50
2018-06-04T03:54:54.212Z,58.13
2018-06-04T03:57:22.301Z,54.43
2018-06-04T03:59:50.390Z,52.37
2018-06-04T04:02:18.263Z,51.17
2018-06-04T04:04:46.354Z,50.70
2018-06-04T04:07:14.466Z,50.17
2018-06-04T04:09:42.575Z,48.30
2018-06-04T04:12:10.677Z,48.77
2018-06-04T04:14:38.766Z,49.50
2018-06-04T04:17:06.879Z,49.20
2018-06-04T04:19:34.830Z,51.17
2018-06-04T04:22:02.959Z,49.23
2018-06-04T04:24:31.038Z,51.57
2018-06-04T04:26:59.202Z,46.93
2018-06-04T04:29:27.259Z,47.60
2018-06-04T04:31:55.335Z,50.53
2018-06-04T04:34:23.469Z,49.50
2018-06-04T04:36:51.531Z,47.17
2018-06-04T04:39:19.689Z,48.23
2018-06-04T04:41:47.781Z,48.33
2018-06-04T04:44:15.908Z,45.97
2018-06-04T04:46:44.024Z,48.57
2018-06-04T04:49:12.094Z,47.90
2018-06-04T04:51:40.240Z,46.43
2018-06-04T04:54:08.302Z,48.83
2018-06-04T04:56:36.420Z,48.17
2018-06-04T04:59:04.663Z,45.47
2018-06-04T05:01:32.796Z,46.13
2018-06-04T05:04:00.917Z,45.27
2018-06-04T05:06:29.051Z,47.63
2018-06-04T05:08:57.261Z,46.37
2018-06-04T05:11:25.222Z,46.23
2018-06-04T05:13:53.314Z,46.60
2018-06-04T05:16:21.383Z,46.70
2018-06-04T05:18:49.492Z,46.60
2018-06-04T05:21:17.636Z,45.10
2018-06-04T05:23:45.774Z,46.27
2018-06-04T05:26:13.846Z,46.20
2018-06-04T05:28:41.918Z,43.90
2018-06-04T05:37:56.133Z,44.97
2018-06-04T05:40:24.252Z,52.05
2018-06-04T05:42:52.347Z,48.40
2018-06-04T05:45:20.419Z,52.67
2018-06-04T05:47:48.603Z,47.40
2018-06-04T05:50:16.691Z,47.37
2018-06-04T05:52:44.824Z,45.27
2018-06-04T05:55:12.966Z,46.93
2018-06-04T05:57:41.064Z,45.07
2018-06-04T06:00:09.179Z,45.40
2018-06-04T06:02:37.242Z,45.23
2018-06-04T06:05:05.333Z,44.10
2018-06-04T06:07:33.437Z,45.23
2018-06-04T06:10:01.532Z,47.50
2018-06-04T06:12:29.616Z,43.97
2018-06-04T06:14:57.728Z,41.83
2018-06-04T06:17:25.820Z,44.50
2018-06-04T06:19:54.005Z,44.57
2018-06-04T06:22:22.120Z,47.85
2018-06-04T06:24:50.223Z,47.40
2018-06-04T06:27:18.334Z,42.10
2018-06-04T06:29:46.483Z,41.10
2018-06-04T06:32:14.547Z,44.80
2018-06-04T06:34:42.623Z,42.77
2018-06-04T06:37:10.708Z,45.40
2018-06-04T06:39:38.792Z,42.47
2018-06-04T06:42:06.903Z,42.93
2018-06-04T06:44:34.987Z,42.30
2018-06-04T06:47:03.148Z,42.90
2018-06-04T06:49:31.259Z,43.47
2018-06-04T06:51:59.368Z,46.03
2018-06-04T06:54:27.478Z,43.80
2018-06-04T06:56:55.650Z,42.03
2018-06-04T06:59:23.759Z,43.00
2018-06-04T07:01:51.844Z,43.50
2018-06-04T07:04:19.902Z,43.83
2018-06-04T07:06:48.011Z,42.33
2018-06-04T07:09:16.101Z,41.63
2018-06-04T07:11:44.207Z,42.13
2018-06-04T07:14:12.283Z,42.03
2018-06-04T07:16:40.355Z,41.97
2018-06-04T07:19:08.437Z,39.87
2018-06-04T07:21:36.658Z,38.93
2018-06-04T07:24:04.933Z,40.23
2018-06-04T07:26:33.008Z,39.03
2018-06-04T07:29:01.091Z,36.87
2018-06-04T07:31:29.179Z,36.43
2018-06-04T07:33:57.352Z,37.43
2018-06-04T07:36:25.497Z,35.10
2018-06-04T07:38:53.627Z,36.07
2018-06-04T07:41:21.980Z,35.13
2018-06-04T07:43:49.976Z,34.60
2018-06-04T07:46:18.098Z,36.00
2018-06-04T07:48:46.171Z,37.47
2018-06-04T07:51:14.259Z,35.07
2018-06-04T07:53:42.424Z,35.25
2018-06-04T07:56:10.495Z,35.30
2018-06-04T07:58:38.595Z,38.05
2018-06-04T08:01:06.691Z,34.83
2018-06-04T08:03:34.811Z,36.27
2018-06-04T08:06:03.035Z,33.90
2018-06-04T08:08:31.140Z,34.63
2018-06-04T08:10:59.332Z,34.53
2018-06-04T08:13:27.506Z,33.87
2018-06-04T08:15:55.668Z,35.27
2018-06-04T08:18:23.742Z,33.30
2018-06-04T08:20:52.018Z,34.25
2018-06-04T08:23:20.087Z,31.90
2018-06-04T08:25:48.165Z,32.07
2018-06-04T08:28:16.289Z,30.37
2018-06-04T08:30:44.345Z,32.15
2018-06-04T08:33:12.481Z,30.48
2018-06-04T08:35:40.557Z,27.87
2018-06-04T08:38:08.639Z,29.57
2018-06-04T08:40:36.743Z,31.10
2018-06-04T08:43:04.827Z,29.10
2018-06-04T08:45:32.979Z,27.10
2018-06-04T08:48:01.113Z,27.73
2018-06-04T08:50:29.289Z,26.57
2018-06-04T08:52:57.437Z,27.05
2018-06-04T08:55:25.495Z,27.00
2018-06-04T08:57:53.620Z,27.70
2018-06-04T09:00:21.699Z,29.27
2018-06-04T09:02:49.811Z,28.40
2018-06-04T09:05:17.971Z,28.60
2018-06-04T09:07:46.017Z,29.00
2018-06-04T09:10:14.079Z,27.65
2018-06-04T09:12:42.188Z,29.63
2018-06-04T09:15:10.367Z,30.08
2018-06-04T09:17:38.536Z,26.55
2018-06-04T09:20:06.626Z,29.80
2018-06-04T09:22:34.703Z,27.90
2018-06-04T09:25:02.824Z,28.17
2018-06-04T09:27:30.923Z,26.33
2018-06-04T09:29:59.007Z,25.72
2018-06-04T09:32:27.108Z,27.20
2018-06-04T09:34:55.207Z,27.50
2018-06-04T09:37:23.313Z,29.90
2018-06-04T09:39:51.795Z,28.40
2018-06-04T09:42:19.912Z,27.27
2018-06-04T09:44:47.995Z,29.05
2018-06-04T09:47:16.120Z,26.50
2018-06-04T09:49:45.122Z,26.93
2018-06-04T09:52:14.782Z,26.50
2018-06-04T09:54:42.843Z,26.95
2018-06-04T09:57:11.571Z,26.27
2018-06-04T09:59:39.655Z,26.27
2018-06-04T10:02:07.745Z,26.57
2018-06-04T10:04:35.824Z,27.27
2018-06-04T10:07:03.954Z,25.20
2018-06-04T10:09:32.073Z,26.65
2018-06-04T10:12:00.215Z,26.33
2018-06-04T10:14:28.314Z,28.25
2018-06-04T10:16:56.652Z,27.37
2018-06-04T10:19:24.756Z,26.57
2018-06-04T10:21:52.835Z,26.52
2018-06-04T10:24:21.013Z,26.45
2018-06-04T10:26:49.115Z,28.60
2018-06-04T10:29:17.207Z,26.30
2018-06-04T10:31:45.292Z,26.35
2018-06-04T10:34:13.387Z,25.10
2018-06-04T10:36:41.572Z,25.57
2018-06-04T10:39:09.765Z,24.70
2018-06-04T10:41:37.851Z,25.15
2018-06-04T10:44:06.102Z,25.10
2018-06-04T10:46:34.208Z,25.37
2018-06-04T10:49:02.333Z,25.72
2018-06-04T10:51:30.647Z,24.72
2018-06-04T10:53:58.732Z,23.75
2018-06-04T10:56:26.869Z,23.15
2018-06-04T10:58:54.988Z,23.12
2018-06-04T11:01:23.249Z,23.67
2018-06-04T11:03:51.631Z,22.48
2018-06-04T11:06:19.743Z,20.50
2018-06-04T11:08:47.993Z,21.50
2018-06-04T11:11:16.162Z,23.32
2018-06-04T11:13:44.342Z,23.02
2018-06-04T11:16:12.439Z,24.32
2018-06-04T11:18:41.180Z,20.97
2018-06-04T11:21:09.495Z,22.93
2018-06-04T11:23:37.618Z,22.75
2018-06-04T11:26:05.485Z,21.82
2018-06-04T11:28:33.689Z,21.93
2018-06-04T11:31:01.761Z,21.37
2018-06-04T11:33:29.942Z,19.40
2018-06-04T11:35:58.068Z,18.52
2018-06-04T11:38:26.200Z,19.23
2018-06-04T11:40:54.305Z,18.20
2018-06-04T11:43:22.426Z,18.42
2018-06-04T11:45:50.499Z,18.42
2018-06-04T11:48:18.600Z,15.93
2018-06-04T11:50:46.712Z,16.37
2018-06-04T11:53:14.775Z,17.10
2018-06-04T11:55:42.961Z,15.15
2018-06-04T11:58:11.062Z,14.87
2018-06-04T12:00:39.186Z,14.95
2018-06-04T12:03:07.318Z,14.75
2018-06-04T12:05:35.407Z,13.40
2018-06-04T12:08:04.097Z,12.80
2018-06-04T12:10:32.198Z,11.80
2018-06-04T12:13:00.384Z,10.58
2018-06-04T12:15:28.462Z,11.25
2018-06-04T12:17:56.597Z,14.35
2018-06-04T12:20:24.731Z,14.60
2018-06-04T12:22:52.817Z,13.00
2018-06-04T12:25:20.951Z,12.28
2018-06-04T12:27:49.062Z,12.25
2018-06-04T12:30:17.251Z,11.90
2018-06-04T12:32:45.343Z,11.43
2018-06-04T12:35:13.441Z,11.55
2018-06-04T12:37:41.519Z,10.82
2018-06-04T12:40:09.611Z,10.13
2018-06-04T12:42:37.728Z,9.55
2018-06-04T12:45:05.821Z,9.15
2018-06-04T12:47:33.928Z,9.28
2018-06-04T12:50:02.246Z,8.95
2018-06-04T12:52:30.319Z,9.00
2018-06-04T12:54:58.510Z,8.55
2018-06-04T12:57:26.625Z,7.00
2018-06-04T12:59:54.806Z,7.67
2018-06-04T13:02:22.878Z,7.30
2018-06-04T13:04:51.034Z,6.28
2018-06-04T13:07:21.632Z,6.67
2018-06-04T13:11:19.351Z,6.55
2018-06-04T13:13:48.473Z,6.67
2018-06-04T13:16:16.594Z,7.00
2018-06-04T13:18:46.857Z,7.28
2018-06-04T13:21:22.988Z,6.95
2018-06-04T13:23:51.177Z,5.80
2018-06-04T13:26:19.335Z,5.17
2018-06-04T13:28:47.530Z,5.67
2018-06-04T13:31:15.916Z,6.08
2018-06-04T13:33:44.031Z,6.60
2018-06-04T13:36:12.360Z,6.33
2018-06-04T13:38:40.822Z,6.35
2018-06-04T13:41:08.946Z,6.58
2018-06-04T13:43:37.487Z,6.40
2018-06-04T13:46:06.147Z,6.05
2018-06-04T13:48:34.207Z,5.72
2018-06-04T13:51:02.495Z,5.67
2018-06-04T13:53:30.694Z,6.45
2018-06-04T13:55:58.815Z,5.97
2018-06-04T13:58:26.978Z,5.28
2018-06-04T14:00:55.058Z,5.33
2018-06-04T14:03:23.154Z,5.05
2018-06-04T14:05:51.256Z,5.37
2018-06-04T14:08:19.342Z,5.50
2018-06-04T14:10:47.531Z,6.00
2018-06-04T14:13:15.944Z,5.95
2018-06-04T14:15:43.942Z,5.55
2018-06-04T14:18:12.045Z,5.37
2018-06-04T14:20:40.118Z,5.45
2018-06-04T14:23:08.453Z,5.10
2018-06-04T14:25:36.644Z,5.83
2018-06-04T14:28:04.927Z,5.80
2018-06-04T14:30:33.038Z,5.85
2018-06-04T14:33:01.199Z,6.03
2018-06-04T14:35:29.286Z,5.58
2018-06-04T14:37:57.370Z,5.17
2018-06-04T14:40:25.507Z,6.00
2018-06-04T14:42:53.634Z,5.15
2018-06-04T14:45:21.849Z,5.70
2018-06-04T14:47:49.934Z,5.95
2018-06-04T14:50:18.004Z,5.65
2018-06-04T14:52:46.076Z,5.58
2018-06-04T14:55:14.209Z,5.62
2018-06-04T14:57:42.303Z,5.65
2018-06-04T15:00:10.415Z,5.15
2018-06-04T15:02:38.514Z,5.33
2018-06-04T15:05:06.595Z,4.78
2018-06-04T15:07:34.711Z,5.75
2018-06-04T15:10:02.899Z,5.12
2018-06-04T15:12:31.023Z,7.25
2018-06-04T15:14:59.078Z,7.97
2018-06-04T15:17:27.180Z,8.03
2018-06-04T15:19:55.278Z,7.92
2018-06-04T15:22:23.426Z,7.50
2018-06-04T15:24:51.542Z,8.00
2018-06-04T15:27:19.451Z,7.83
2018-06-04T15:29:47.575Z,8.30
2018-06-04T15:32:15.675Z,8.93
2018-06-04T15:34:43.874Z,8.48
2018-06-04T15:37:12.074Z,7.08
2018-06-04T15:39:40.220Z,8.15
2018-06-04T15:42:08.406Z,8.60
2018-06-04T15:44:37.062Z,8.28
2018-06-04T15:47:05.218Z,6.85
2018-06-04T15:49:33.409Z,6.78
2018-06-04T15:52:01.619Z,7.17
2018-06-04T15:54:29.678Z,6.72
2018-06-04T15:56:57.834Z,6.80
2018-06-04T15:59:26.020Z,6.22
2018-06-04T16:01:54.167Z,7.03
2018-06-04T16:04:22.777Z,6.42
2018-06-04T16:06:50.851Z,6.00
2018-06-04T16:09:18.947Z,6.37
2018-06-04T16:11:47.046Z,6.30
2018-06-04T16:14:15.134Z,6.25
2018-06-04T16:16:43.420Z,6.93
2018-06-04T16:19:11.749Z,6.90
2018-06-04T16:21:40.151Z,6.17
2018-06-04T16:24:08.300Z,7.08
2018-06-04T16:26:36.655Z,6.75
2018-06-04T16:29:04.758Z,7.12
2018-06-04T16:31:32.975Z,7.75
2018-06-04T16:34:01.856Z,6.92
2018-06-04T16:36:29.988Z,7.85
2018-06-04T16:38:58.115Z,8.23
2018-06-04T16:41:26.251Z,8.10
2018-06-04T16:43:54.326Z,7.83
2018-06-04T16:46:22.278Z,8.18
2018-06-04T16:48:50.386Z,6.97
2018-06-04T16:51:18.555Z,8.10
2018-06-04T16:53:46.606Z,8.90
2018-06-04T16:56:14.845Z,7.72
2018-06-04T16:58:42.930Z,8.23
2018-06-04T17:01:11.051Z,8.75
2018-06-04T17:03:39.162Z,8.28
2018-06-04T17:06:07.251Z,8.80
2018-06-04T17:08:35.867Z,9.05
2018-06-04T17:11:04.139Z,8.65
2018-06-04T17:13:32.277Z,8.98
2018-06-04T17:16:00.394Z,7.87
2018-06-04T17:18:28.502Z,8.50
2018-06-04T17:20:56.622Z,8.75
2018-06-04T17:23:24.794Z,9.28
2018-06-04T17:25:53.653Z,8.75
2018-06-04T17:28:22.374Z,9.38
2018-06-04T17:30:50.586Z,7.83
2018-06-04T17:33:18.674Z,7.78
2018-06-04T17:35:46.767Z,7.42
2018-06-04T17:38:14.959Z,8.05
2018-06-04T17:40:43.442Z,8.03
2018-06-04T17:43:11.599Z,8.35
2018-06-04T17:45:39.700Z,7.85
2018-06-04T17:48:07.827Z,8.18
2018-06-04T17:50:35.961Z,8.50
2018-06-04T17:53:04.054Z,8.58
2018-06-04T17:55:32.033Z,8.98
2018-06-04T17:58:00.807Z,9.28
2018-06-04T18:00:29.238Z,9.83
2018-06-04T18:02:57.452Z,9.30
2018-06-04T18:05:25.636Z,8.93
2018-06-04T18:07:53.773Z,8.68
2018-06-04T18:10:21.835Z,8.33
2018-06-04T18:12:50.007Z,8.43
2018-06-04T18:15:18.051Z,8.23
2018-06-04T18:17:46.178Z,8.33
2018-06-04T18:20:14.275Z,8.43
2018-06-04T18:22:42.363Z,8.25
2018-06-04T18:25:10.538Z,8.45
2018-06-04T18:27:38.671Z,9.28
2018-06-04T18:30:06.798Z,9.48
2018-06-04T18:32:34.905Z,9.30
2018-06-04T18:35:03.019Z,9.33
2018-06-04T18:37:31.131Z,10.03
2018-06-04T18:39:59.210Z,9.93
2018-06-04T18:42:27.330Z,8.38
2018-06-04T18:44:55.403Z,9.23
2018-06-04T18:47:23.539Z,9.38
2018-06-04T18:49:51.615Z,9.05
2018-06-04T18:52:19.739Z,9.93
2018-06-04T18:54:47.819Z,9.20
2018-06-04T18:57:16.661Z,8.93
2018-06-04T18:59:46.568Z,9.85
2018-06-04T19:02:14.886Z,9.70
2018-06-04T19:04:43.240Z,9.30
2018-06-04T19:07:11.313Z,8.28
2018-06-04T19:09:39.490Z,9.60
2018-06-04T19:12:07.572Z,9.03
2018-06-04T19:14:35.757Z,10.00
2018-06-04T19:17:04.192Z,9.23
2018-06-04T19:19:32.271Z,10.05
2018-06-04T19:22:00.332Z,10.13
2018-06-04T19:24:28.448Z,11.20
2018-06-04T19:26:56.585Z,10.95
2018-06-04T19:29:24.421Z,10.33
2018-06-04T19:31:52.577Z,12.27
2018-06-04T19:34:20.631Z,12.93
2018-06-04T19:36:48.749Z,13.20
2018-06-04T19:39:17.127Z,12.93
2018-06-04T19:41:45.286Z,13.60
2018-06-04T19:44:13.440Z,14.00
2018-06-04T19:46:41.530Z,13.37
2018-06-04T19:49:10.080Z,14.93
2018-06-04T19:51:38.503Z,14.20
2018-06-04T19:54:06.585Z,14.43
2018-06-04T19:56:35.095Z,14.07
2018-06-04T19:59:03.189Z,14.40
2018-06-04T20:01:31.275Z,15.20
2018-06-04T20:03:59.710Z,14.93
2018-06-04T20:06:27.918Z,16.70
2018-06-04T20:08:56.098Z,14.50
2018-06-04T20:11:24.206Z,13.03
2018-06-04T20:13:52.357Z,13.60
2018-06-04T20:16:20.420Z,13.90
2018-06-04T20:18:48.486Z,12.80
2018-06-04T20:21:16.694Z,13.73
2018-06-04T20:23:44.758Z,15.27
2018-06-04T20:26:12.963Z,13.50
2018-06-04T20:28:41.083Z,14.23
2018-06-04T20:31:09.256Z,13.30
2018-06-04T20:33:37.327Z,12.73
2018-06-04T20:36:05.419Z,14.40
2018-06-04T20:38:33.281Z,13.40
2018-06-04T20:41:01.357Z,14.83
2018-06-04T20:43:29.464Z,14.53
2018-06-04T20:45:57.665Z,15.00
2018-06-04T20:48:25.879Z,15.32
2018-06-04T20:50:53.964Z,15.73
2018-06-04T20:53:21.892Z,15.67
2018-06-04T20:55:49.974Z,13.90
2018-06-04T20:58:18.119Z,16.97
2018-06-04T21:00:46.204Z,15.33
2018-06-04T21:03:14.282Z,15.60
2018-06-04T21:05:42.519Z,15.57
2018-06-04T21:08:10.592Z,15.30
2018-06-04T21:10:38.814Z,16.67
2018-06-04T21:13:07.086Z,16.27
2018-06-04T21:15:35.200Z,17.23
2018-06-04T21:18:03.391Z,16.97
2018-06-04T21:20:31.605Z,17.13
2018-06-04T21:22:59.695Z,17.57
2018-06-04T21:25:29.915Z,17.70
2018-06-04T21:27:59.806Z,17.37
2018-06-04T21:30:28.322Z,17.33
2018-06-04T21:32:56.506Z,17.27
2018-06-04T21:35:24.640Z,17.73
2018-06-04T21:37:52.774Z,16.80
2018-06-04T21:40:20.868Z,15.03
2018-06-04T21:42:48.932Z,17.60
2018-06-04T21:45:17.111Z,18.40
2018-06-04T21:47:45.243Z,18.23
2018-06-04T21:50:13.340Z,18.63
2018-06-04T21:52:41.422Z,19.23
2018-06-04T21:55:10.237Z,19.23
2018-06-04T21:57:38.514Z,19.70
2018-06-04T22:00:08.963Z,19.30
2018-06-04T22:02:38.007Z,21.43
2018-06-04T22:05:06.355Z,21.77
2018-06-04T22:07:34.476Z,21.07
2018-06-04T22:10:02.563Z,23.12
2018-06-04T22:12:30.780Z,22.13
2018-06-04T22:14:58.838Z,24.30
2018-06-04T22:17:27.019Z,22.27
2018-06-04T22:19:55.075Z,24.23
2018-06-04T22:22:23.292Z,23.10
2018-06-04T22:24:51.417Z,24.40
2018-06-04T22:27:19.504Z,24.17
2018-06-04T22:29:47.373Z,24.10
2018-06-04T22:32:15.313Z,25.57
2018-06-04T22:34:43.398Z,26.20
2018-06-04T22:37:11.500Z,26.67
2018-06-04T22:39:39.610Z,25.40
2018-06-04T22:42:07.718Z,28.57
2018-06-04T22:44:35.810Z,29.23
2018-06-04T22:47:03.916Z,29.37
2018-06-04T22:49:32.106Z,28.93
2018-06-04T22:52:00.194Z,31.13
2018-06-04T22:54:28.330Z,31.07
2018-06-04T22:56:56.423Z,29.23
2018-06-04T22:59:24.507Z,30.10
2018-06-04T23:01:52.582Z,29.13
2018-06-04T23:04:20.662Z,29.40
2018-06-04T23:06:48.734Z,29.53
2018-06-04T23:09:16.818Z,28.23
2018-06-04T23:11:44.942Z,27.77
2018-06-04T23:14:13.040Z,29.10
2018-06-04T23:16:41.159Z,27.03
2018-06-04T23:19:09.003Z,27.50
2018-06-04T23:21:37.130Z,27.87
2018-06-04T23:24:05.238Z,26.90
2018-06-04T23:26:33.366Z,28.70
2018-06-04T23:29:01.471Z,26.47
2018-06-04T23:31:29.570Z,25.87
2018-06-04T23:33:57.674Z,24.70
2018-06-04T23:36:25.760Z,26.13
2018-06-04T23:38:53.842Z,24.63
2018-06-04T23:41:21.995Z,27.55
2018-06-04T23:43:50.693Z,24.30
2018-06-04T23:46:18.855Z,25.90
2018-06-04T23:48:46.962Z,23.27
2018-06-04T23:51:15.038Z,22.57
2018-06-04T23:53:43.130Z,22.97
2018-06-04T23:56:11.213Z,24.00
2018-06-04T23:58:39.334Z,23.50
